Time;durP1;ratioP1;P1;durP2;ratioP2;P2;SDS_P1;SDS_P2;PMS_P1;PMS_P2;Temp;Humidity;BMP_temperature;BMP_pressure;BME280_temperature;BME280_humidity;BME280_pressure;Samples;Min_cycle;Max_cycle;Signal;HPM_P1;HPM_P2
2022/04/23 00:00:27;;;;;;;26.20;15.20;;;5.10;1.00;;;;;;5134781;27;20193;-89
2022/04/23 00:02:57;;;;;;;23.87;15.30;;;5.10;1.00;;;;;;5134938;27;20205;-88
2022/04/23 00:05:24;;;;;;;22.37;15.50;;;5.10;1.00;;;;;;5134511;27;20660;-89
2022/04/23 00:07:51;;;;;;;22.43;14.73;;;5.10;1.00;;;;;;5134560;27;20250;-88
2022/04/23 00:10:18;;;;;;;25.33;15.77;;;5.10;1.00;;;;;;5134652;27;20193;-86
2022/04/23 00:12:47;;;;;;;23.07;15.67;;;5.10;1.00;;;;;;5134793;27;20205;-87
2022/04/23 00:15:15;;;;;;;24.47;14.93;;;5.10;1.00;;;;;;5134030;27;20563;-86
2022/04/23 00:17:43;;;;;;;22.17;15.13;;;5.00;1.00;;;;;;5134415;27;20269;-88
2022/04/23 00:20:12;;;;;;;22.70;14.77;;;5.00;1.00;;;;;;5134697;27;20186;-87
2022/04/23 00:22:40;;;;;;;23.00;14.83;;;4.90;1.00;;;;;;5134371;27;20192;-86
2022/04/23 00:25:08;;;;;;;23.93;14.73;;;4.80;1.00;;;;;;5135763;27;20186;-91
2022/04/23 00:27:35;;;;;;;24.93;15.40;;;4.70;1.00;;;;;;5136101;27;20672;-85
2022/04/23 00:30:02;;;;;;;22.67;14.97;;;4.70;1.00;;;;;;5137073;27;20518;-88
2022/04/23 00:32:31;;;;;;;24.03;15.63;;;4.60;1.00;;;;;;5136163;27;20195;-89
2022/04/23 00:34:58;;;;;;;;;;;4.60;1.00;;;;;;5136165;27;20193;-89
2022/04/23 00:37:25;;;;;;;25.33;16.00;;;4.60;1.00;;;;;;5135680;27;20187;-85
2022/04/23 00:39:52;;;;;;;21.93;13.97;;;4.50;1.00;;;;;;5136100;27;20249;-86
2022/04/23 00:42:19;;;;;;;24.00;14.33;;;4.50;1.00;;;;;;5137216;27;20279;-90
2022/04/23 00:44:46;;;;;;;21.90;13.63;;;4.40;1.00;;;;;;5137838;28;20223;-85
2022/04/23 00:47:13;;;;;;;23.53;14.77;;;4.40;57.00;;;;;;5137375;28;20190;-86
2022/04/23 00:49:41;;;;;;;22.10;14.60;;;4.50;18.00;;;;;;5137882;28;20193;-89
2022/04/23 00:52:09;;;;;;;20.17;13.87;;;4.50;1.00;;;;;;5140885;27;20245;-87
2022/04/23 00:54:38;;;;;;;23.27;14.67;;;4.50;51.10;;;;;;5138565;27;20202;-87
2022/04/23 00:57:07;;;;;;;23.60;14.60;;;4.50;24.90;;;;;;5136616;27;20196;-84
2022/04/23 00:59:35;;;;;;;19.90;14.23;;;4.60;99.90;;;;;;5136772;27;20228;-85
2022/04/23 01:02:03;;;;;;;20.43;14.13;;;4.60;99.90;;;;;;5136652;27;20189;-88
2022/04/23 01:04:30;;;;;;;18.70;13.17;;;4.60;99.90;;;;;;5136332;27;20283;-86
2022/04/23 01:06:59;;;;;;;19.87;13.77;;;4.70;99.90;;;;;;5136332;27;20200;-86
2022/04/23 01:09:27;;;;;;;20.20;13.30;;;4.70;98.50;;;;;;5137953;27;20200;-87
2022/04/23 01:11:56;;;;;;;20.53;12.93;;;4.70;91.90;;;;;;5137867;27;20196;-87
2022/04/23 01:14:23;;;;;;;19.47;12.70;;;4.70;96.70;;;;;;5137563;27;20212;-89
2022/04/23 01:16:50;;;;;;;20.47;13.10;;;4.70;96.10;;;;;;5136378;27;20660;-87
2022/04/23 01:19:18;;;;;;;18.50;12.47;;;4.70;40.40;;;;;;5135157;27;20621;-85
2022/04/23 01:21:46;;;;;;;18.93;13.30;;;4.70;23.60;;;;;;5135420;28;20729;-86
2022/04/23 01:24:15;;;;;;;17.47;12.57;;;4.60;1.00;;;;;;5135811;27;20196;-88
2022/04/23 01:26:42;;;;;;;20.90;13.47;;;4.60;1.00;;;;;;5135492;28;20245;-85
2022/04/23 01:29:09;;;;;;;21.93;12.83;;;4.40;1.00;;;;;;5136466;27;20220;-86
2022/04/23 01:31:36;;;;;;;19.40;13.40;;;4.40;1.00;;;;;;5134210;27;20628;-91
2022/04/23 01:34:04;;;;;;;22.10;13.43;;;4.40;5.30;;;;;;5134366;27;20248;-84
2022/04/23 01:36:31;;;;;;;19.90;12.57;;;4.40;6.70;;;;;;5134118;28;20203;-88
2022/04/23 01:38:59;;;;;;;20.10;13.30;;;4.40;2.30;;;;;;5134551;27;20779;-87
2022/04/23 01:41:26;;;;;;;21.67;12.83;;;4.30;49.20;;;;;;5134739;28;20257;-84
2022/04/23 01:43:53;;;;;;;20.37;13.63;;;4.30;35.30;;;;;;5133987;28;20190;-87
2022/04/23 01:46:20;;;;;;;21.67;13.43;;;4.30;27.60;;;;;;5133626;28;20654;-88
2022/04/23 01:48:49;;;;;;;21.00;14.00;;;4.30;3.00;;;;;;5133597;28;20227;-88
2022/04/23 01:51:16;;;;;;;32.63;23.70;;;4.20;1.00;;;;;;5134086;27;20198;-86
2022/04/23 01:53:43;;;;;;;22.23;14.20;;;4.20;14.90;;;;;;5136226;27;20191;-88
2022/04/23 01:56:12;;;;;;;22.23;14.23;;;4.10;25.90;;;;;;5137480;27;20215;-90
2022/04/23 01:58:39;;;;;;;22.20;14.03;;;4.00;51.60;;;;;;5137311;27;20578;-87
2022/04/23 02:01:06;;;;;;;25.57;14.73;;;4.00;56.40;;;;;;5137698;27;20198;-86
2022/04/23 02:03:35;;;;;;;23.37;15.60;;;4.00;95.50;;;;;;5137278;27;20196;-89
2022/04/23 02:06:02;;;;;;;25.03;14.73;;;4.00;99.90;;;;;;5137740;27;20194;-88
2022/04/23 02:08:29;;;;;;;20.77;13.87;;;4.00;99.90;;;;;;5136957;27;20240;-86
2022/04/23 02:10:56;;;;;;;21.07;13.83;;;4.00;99.90;;;;;;5138116;27;20255;-88
2022/04/23 02:13:24;;;;;;;23.27;14.07;;;4.00;99.90;;;;;;5138038;27;20242;-85
2022/04/23 02:15:51;;;;;;;22.63;14.40;;;3.90;99.90;;;;;;5138092;27;20189;-89
2022/04/23 02:18:18;;;;;;;22.67;14.47;;;3.90;99.90;;;;;;5137875;27;20274;-89
2022/04/23 02:20:45;;;;;;;22.27;13.93;;;3.80;99.90;;;;;;5136773;27;20645;-89
2022/04/23 02:23:12;;;;;;;22.70;14.97;;;3.80;99.90;;;;;;5137832;27;20282;-92
2022/04/23 02:25:39;;;;;;;22.27;14.83;;;3.80;99.90;;;;;;5136893;27;20202;-86
2022/04/23 02:28:06;;;;;;;27.50;15.20;;;3.80;99.90;;;;;;5135647;27;20234;-87
2022/04/23 02:30:35;;;;;;;22.57;14.60;;;3.70;99.90;;;;;;5135860;27;20256;-88
2022/04/23 02:33:02;;;;;;;22.67;15.13;;;3.70;99.90;;;;;;5135855;27;20195;-87
2022/04/23 02:35:29;;;;;;;25.27;15.10;;;3.70;99.90;;;;;;5135404;27;20663;-88
2022/04/23 02:37:57;;;;;;;22.80;14.33;;;3.60;99.90;;;;;;5135584;27;20267;-87
2022/04/23 02:40:25;;;;;;;21.80;13.75;;;3.60;99.90;;;;;;5135578;27;20232;-87
2022/04/23 02:42:53;;;;;;;23.13;13.87;;;3.50;99.90;;;;;;5136242;27;20596;-88
2022/04/23 02:45:20;;;;;;;25.57;15.83;;;3.50;99.90;;;;;;5137523;27;20246;-87
2022/04/23 02:47:50;;;;;;;25.07;15.80;;;3.50;99.90;;;;;;5139320;27;20190;-91
2022/04/23 02:50:25;;;;;;;27.23;16.30;;;3.50;99.90;;;;;;5139894;27;20202;-87
2022/04/23 02:52:53;;;;;;;27.53;16.30;;;3.60;1.00;;;;;;5138946;27;20230;-90
2022/04/23 02:55:21;;;;;;;22.67;14.80;;;3.60;1.00;;;;;;5138577;27;20253;-87
2022/04/23 02:57:48;;;;;;;22.70;14.20;;;3.60;1.00;;;;;;5137886;27;20190;-88
2022/04/23 03:00:15;;;;;;;23.20;14.23;;;3.60;1.00;;;;;;5139689;27;20208;-90
2022/04/23 03:02:44;;;;;;;20.03;12.73;;;3.60;99.90;;;;;;5140759;27;20190;-86
2022/04/23 03:05:14;;;;;;;21.97;13.70;;;3.40;99.90;;;;;;5140897;27;20225;-87
2022/04/23 03:07:42;;;;;;;21.73;14.50;;;3.30;99.90;;;;;;5139084;27;20174;-89
2022/04/23 03:10:11;;;;;;;20.20;13.87;;;3.30;1.00;;;;;;5139465;27;20223;-87
2022/04/23 03:12:38;;;;;;;23.20;13.70;;;3.30;1.00;;;;;;5137735;27;20238;-89
2022/04/23 03:15:07;;;;;;;24.90;14.17;;;3.30;1.00;;;;;;5137776;27;20634;-86
2022/04/23 03:17:34;;;;;;;21.37;13.60;;;3.20;1.00;;;;;;5138261;27;20194;-88
2022/04/23 03:20:02;;;;;;;24.90;14.27;;;3.20;1.00;;;;;;5138605;27;20218;-90
2022/04/23 03:22:30;;;;;;;22.20;13.50;;;3.20;1.00;;;;;;5139233;27;20185;-89
2022/04/23 03:24:57;;;;;;;22.10;13.77;;;3.20;1.00;;;;;;5138305;27;20194;-89
2022/04/23 03:27:24;;;;;;;20.80;13.63;;;3.10;1.00;;;;;;5138515;27;20595;-87
2022/04/23 03:29:51;;;;;;;21.77;13.83;;;3.10;1.00;;;;;;5139269;27;20239;-89
2022/04/23 03:32:18;;;;;;;22.70;13.60;;;3.10;1.00;;;;;;5138006;27;20270;-86
2022/04/23 03:34:45;;;;;;;22.43;14.03;;;3.10;1.00;;;;;;5139180;27;20261;-89
2022/04/23 03:37:12;;;;;;;20.60;13.53;;;3.00;1.00;;;;;;5137921;27;20258;-89
2022/04/23 03:39:41;;;;;;;22.80;14.97;;;3.00;1.00;;;;;;5138703;27;20640;-87
2022/04/23 03:42:08;;;;;;;21.50;13.73;;;3.00;1.00;;;;;;5139736;27;20691;-86
2022/04/23 03:44:35;;;;;;;23.60;14.47;;;2.90;1.00;;;;;;5138183;27;20232;-88
2022/04/23 03:47:02;;;;;;;21.57;14.07;;;2.90;1.00;;;;;;5137816;27;20235;-89
2022/04/23 03:49:30;;;;;;;21.30;13.60;;;2.90;1.00;;;;;;5138309;27;20198;-89
2022/04/23 03:51:57;;;;;;;28.30;18.57;;;2.90;1.00;;;;;;5137210;27;20212;-88
2022/04/23 03:54:25;;;;;;;26.17;15.23;;;2.90;1.00;;;;;;5138249;27;20219;-89
2022/04/23 03:56:53;;;;;;;22.27;13.93;;;2.90;1.00;;;;;;5141192;27;20193;-87
2022/04/23 03:59:23;;;;;;;27.83;14.73;;;2.90;1.00;;;;;;5141453;27;20213;-88
2022/04/23 04:01:53;;;;;;;22.67;14.10;;;2.90;1.00;;;;;;5139673;27;20268;-86
2022/04/23 04:04:20;;;;;;;22.27;14.53;;;2.90;1.00;;;;;;5139623;27;20247;-88
2022/04/23 04:06:47;;;;;;;23.93;14.40;;;2.90;1.00;;;;;;5138260;27;20282;-89
2022/04/23 04:09:14;;;;;;;20.80;14.17;;;3.00;1.00;;;;;;5138063;27;20194;-88
2022/04/23 04:14:27;;;;;;;23.47;13.53;;;3.10;1.00;;;;;;5138280;27;20207;-89
2022/04/23 04:16:55;;;;;;;20.77;13.77;;;3.10;1.00;;;;;;5137345;27;20193;-86
2022/04/23 04:19:22;;;;;;;20.83;13.53;;;3.20;1.00;;;;;;5138011;27;20219;-86
2022/04/23 04:21:49;;;;;;;23.37;13.60;;;3.20;1.00;;;;;;5139770;27;20321;-88
2022/04/23 04:24:16;;;;;;;20.87;13.30;;;3.30;16.40;;;;;;5138661;27;20634;-91
2022/04/23 04:26:44;;;;;;;19.57;13.70;;;3.40;96.00;;;;;;5139189;27;20221;-87
2022/04/23 04:29:12;;;;;;;20.37;13.20;;;3.50;99.90;;;;;;5139934;27;20226;-88
2022/04/23 04:31:51;;;;;;;21.00;13.60;;;3.50;99.90;;;;;;5140647;27;20190;-85
2022/04/23 04:34:19;;;;;;;20.80;13.17;;;3.60;99.90;;;;;;5140733;27;20178;-89
2022/04/23 04:36:48;;;;;;;21.77;13.80;;;3.80;99.90;;;;;;5142952;27;20228;-86
2022/04/23 04:39:16;;;;;;;25.37;15.13;;;4.00;1.00;;;;;;5142391;28;20220;-86
2022/04/23 04:41:43;;;;;;;19.10;13.20;;;4.60;99.90;;;;;;5142705;28;20197;-87
2022/04/23 04:44:11;;;;;;;15.00;10.50;;;5.40;1.00;;;;;;5141183;28;20240;-89
2022/04/23 04:46:39;;;;;;;13.73;9.63;;;6.40;99.90;;;;;;5140884;27;20655;-87
2022/04/23 04:49:07;;;;;;;13.03;9.10;;;7.40;66.70;;;;;;5138956;28;20647;-91
2022/04/23 04:51:36;;;;;;;14.33;9.27;;;8.30;1.00;;;;;;5139471;28;20197;-87
2022/04/23 04:54:03;;;;;;;11.37;8.33;;;9.20;99.90;;;;;;5139722;28;20281;-87
2022/04/23 04:56:30;;;;;;;12.60;8.83;;;10.00;1.00;;;;;;5139824;28;20228;-86
2022/04/23 04:58:57;;;;;;;11.70;8.17;;;10.70;99.90;;;;;;5139868;28;20685;-85
2022/04/23 05:01:25;;;;;;;10.87;8.60;;;11.40;1.00;;;;;;5139274;28;20243;-87
2022/04/23 05:03:53;;;;;;;12.13;8.67;;;12.00;99.90;;;;;;5139873;28;20196;-89
2022/04/23 05:06:21;;;;;;;11.23;8.70;;;12.50;1.00;;;;;;5139172;27;20251;-87
2022/04/23 05:08:48;;;;;;;9.80;7.80;;;13.00;1.00;;;;;;5138928;28;20258;-89
2022/04/23 05:11:15;;;;;;;11.00;8.17;;;13.40;99.90;;;;;;5137376;28;20187;-86
2022/04/23 05:13:42;;;;;;;9.95;8.65;;;13.70;99.90;;;;;;5137710;27;20217;-87
2022/04/23 05:16:09;;;;;;;10.05;8.50;;;14.00;99.90;;;;;;5136299;27;20213;-89
2022/04/23 05:18:36;;;;;;;10.48;8.93;;;14.30;99.90;;;;;;5136261;28;20204;-87
2022/04/23 05:21:05;;;;;;;9.90;8.40;;;14.60;66.60;;;;;;5137489;28;20189;-86
2022/04/23 05:23:32;;;;;;;10.73;7.80;;;15.00;1.00;;;;;;5138028;28;20194;-87
2022/04/23 05:26:00;;;;;;;8.68;7.82;;;15.30;1.00;;;;;;5137260;27;20272;-88
2022/04/23 05:28:27;;;;;;;11.10;7.90;;;15.70;1.00;;;;;;5138613;27;20569;-89
2022/04/23 05:30:54;;;;;;;9.43;7.93;;;16.00;1.00;;;;;;5138651;27;20591;-87
2022/04/23 05:33:21;;;;;;;9.18;7.53;;;16.30;1.00;;;;;;5138747;27;20187;-88
2022/04/23 05:35:47;;;;;;;;;;;16.50;1.00;;;;;;5139293;27;20602;-86
2022/04/23 05:38:18;;;;;;;;;;;16.70;1.00;;;;;;5138493;27;20063;-89
2022/04/23 05:40:45;;;;;;;9.60;7.47;;;17.00;1.00;;;;;;5138197;27;20178;-90
2022/04/23 05:43:12;;;;;;;11.60;7.85;;;17.40;1.00;;;;;;5137184;27;20186;-87
2022/04/23 05:45:40;;;;;;;8.32;7.35;;;17.80;1.00;;;;;;5137323;27;20186;-90
2022/04/23 05:48:07;;;;;;;9.43;7.20;;;18.20;1.00;;;;;;5137677;27;20186;-88
2022/04/23 05:50:34;;;;;;;9.55;7.68;;;18.50;1.00;;;;;;5138825;27;20194;-85
2022/04/23 05:53:01;;;;;;;8.57;7.15;;;18.70;1.00;;;;;;5137260;27;20650;-90
2022/04/23 05:55:30;;;;;;;8.88;6.95;;;18.90;1.00;;;;;;5137973;27;20215;-88
2022/04/23 05:57:57;;;;;;;12.27;7.65;;;19.00;1.00;;;;;;5137682;27;20247;-87
2022/04/23 06:00:32;;;;;;;7.32;6.32;;;19.20;1.00;;;;;;5148603;27;20214;-87
2022/04/23 06:03:06;;;;;;;8.13;6.97;;;19.40;1.00;;;;;;5161059;27;20186;-88
2022/04/23 06:05:52;;;;;;;8.23;6.40;;;19.60;1.00;;;;;;5161546;27;20555;-88
2022/04/23 06:08:24;;;;;;;10.43;6.60;;;19.80;1.00;;;;;;5159874;27;20219;-87
2022/04/23 06:11:09;;;;;;;9.38;6.43;;;20.00;1.00;;;;;;5161153;27;20186;-88
2022/04/23 06:13:47;;;;;;;7.28;6.18;;;20.10;1.00;;;;;;5160702;27;20190;-87
2022/04/23 06:16:24;;;;;;;6.57;5.85;;;20.20;1.00;;;;;;5161237;27;20178;-89
2022/04/23 06:18:56;;;;;;;6.93;5.78;;;20.40;1.00;;;;;;5160382;27;20190;-90
2022/04/23 06:21:38;;;;;;;7.40;5.88;;;20.70;1.00;;;;;;5160997;27;20198;-90
2022/04/23 06:24:10;;;;;;;;;;;21.10;1.00;;;;;;5161302;27;20218;-90
2022/04/23 06:26:40;;;;;;;9.38;6.15;;;21.40;1.00;;;;;;5160479;27;20292;-86
2022/04/23 06:29:15;;;;;;;8.73;5.63;;;21.80;1.00;;;;;;5160244;27;20222;-89
2022/04/23 06:34:59;;;;;;;6.20;5.60;;;22.50;1.00;;;;;;5138266;27;20205;-90
2022/04/23 06:37:45;;;;;;;6.70;6.00;;;22.70;1.00;;;;;;5139906;28;20191;-88
2022/04/23 06:40:24;;;;;;;8.35;5.72;;;22.90;1.00;;;;;;5138574;27;20244;-90
2022/04/23 06:42:57;;;;;;;10.63;5.45;;;23.20;1.00;;;;;;5139682;27;20216;-90
2022/04/23 06:45:35;;;;;;;8.63;5.40;;;23.30;1.00;;;;;;5139433;28;20183;-87
2022/04/23 06:48:11;;;;;;;5.65;5.00;;;23.30;1.00;;;;;;5139884;28;20181;-88
2022/04/23 06:50:40;;;;;;;5.38;4.88;;;23.30;1.00;;;;;;5139621;27;20182;-86
2022/04/23 06:53:16;;;;;;;5.20;4.70;;;23.30;1.00;;;;;;5139537;28;20195;-85
2022/04/23 06:55:47;;;;;;;7.55;4.80;;;23.30;1.00;;;;;;5138789;28;20647;-89
2022/04/23 06:58:22;;;;;;;7.25;5.10;;;23.30;1.00;;;;;;5138911;28;20167;-88
2022/04/23 07:00:55;;;;;;;5.05;4.55;;;23.30;1.00;;;;;;5139144;28;20367;-84
2022/04/23 07:03:30;;;;;;;5.20;4.70;;;23.30;1.00;;;;;;5139120;28;20183;-85
2022/04/23 07:06:04;;;;;;;5.65;5.05;;;23.50;1.00;;;;;;5139022;28;20182;-88
2022/04/23 07:08:40;;;;;;;9.23;5.22;;;23.60;1.00;;;;;;5139041;27;20205;-86
2022/04/23 07:11:15;;;;;;;6.70;5.22;;;23.80;1.00;;;;;;5138570;28;20245;-88
2022/04/23 07:14:08;;;;;;;7.22;4.80;;;23.90;1.00;;;;;;5138558;28;20206;-88
2022/04/23 07:16:45;;;;;;;5.55;5.05;;;24.30;1.00;;;;;;5138821;27;20250;-89
2022/04/23 07:19:15;;;;;;;5.50;4.85;;;24.60;1.00;;;;;;5138837;27;20202;-89
2022/04/23 07:21:51;;;;;;;6.63;4.50;;;24.90;1.00;;;;;;5138548;27;20179;-86
2022/04/23 07:24:19;;;;;;;7.78;4.80;;;25.40;1.00;;;;;;5138971;28;20194;-88
2022/04/23 07:26:52;;;;;;;4.63;4.13;;;25.90;1.00;;;;;;5138648;27;20178;-87
2022/04/23 07:29:39;;;;;;;5.53;4.50;;;26.10;1.00;;;;;;5138413;27;20295;-86
2022/04/23 07:32:19;;;;;;;6.70;4.63;;;26.20;1.00;;;;;;5137985;28;20191;-86
2022/04/23 07:37:59;;;;;;;6.95;4.65;;;26.20;1.00;;;;;;5138372;28;20203;-86
2022/04/23 07:40:30;;;;;;;6.05;4.80;;;26.20;1.00;;;;;;5137536;27;20194;-88
2022/04/23 07:43:02;;;;;;;5.80;4.40;;;26.40;1.00;;;;;;5137855;28;20193;-88
2022/04/23 07:45:34;;;;;;;5.75;4.32;;;27.00;1.00;;;;;;5136461;28;20213;-91
2022/04/23 07:48:20;;;;;;;13.57;4.22;;;27.50;1.00;;;;;;5146357;27;20212;-87
2022/04/23 07:50:53;;;;;;;4.88;4.35;;;28.20;1.00;;;;;;5155765;27;20214;-87
2022/04/23 07:53:24;;;;;;;5.10;4.38;;;28.70;1.00;;;;;;5155679;27;20195;-87
2022/04/23 07:56:10;;;;;;;6.15;4.40;;;28.90;1.00;;;;;;5155196;27;20558;-92
2022/04/23 08:01:52;;;;;;;6.35;3.90;;;28.50;1.00;;;;;;5155162;27;20194;-86
2022/04/23 08:04:29;;;;;;;5.38;3.90;;;28.20;1.00;;;;;;5154885;27;20254;-87
2022/04/23 08:06:57;;;;;;;4.85;3.83;;;27.80;1.00;;;;;;5152785;27;20193;-84
2022/04/23 08:09:39;;;;;;;;;;;;;;;;;;;;;
2022/04/23 08:12:11;;;;;;;5.00;4.10;;;27.10;1.00;;;;;;5158682;27;20217;-90
2022/04/23 08:14:38;;;;;;;5.68;4.38;;;26.80;1.00;;;;;;5146647;27;20238;-88
2022/04/23 08:17:06;;;;;;;4.88;4.22;;;26.60;1.00;;;;;;5134069;27;20228;-87
2022/04/23 08:19:34;;;;;;;4.97;4.47;;;26.50;1.00;;;;;;5133651;27;20662;-87
2022/04/23 08:22:01;;;;;;;5.50;4.65;;;26.10;1.00;;;;;;5137231;27;20194;-86
2022/04/23 08:24:30;;;;;;;5.38;4.53;;;25.90;1.00;;;;;;5140641;27;20258;-86
2022/04/23 08:26:57;;;;;;;4.90;4.25;;;25.80;1.00;;;;;;5139531;27;20218;-91
2022/04/23 08:32:10;;;;;;;5.10;3.92;;;25.90;1.00;;;;;;5133960;27;20541;-88
2022/04/23 08:34:37;;;;;;;7.07;4.10;;;26.00;1.00;;;;;;5134582;27;20247;-86
2022/04/23 08:37:04;;;;;;;4.82;4.15;;;26.10;1.00;;;;;;5139072;27;20190;-88
2022/04/23 08:39:31;;;;;;;4.68;4.18;;;26.00;1.00;;;;;;5138393;27;20646;-89
2022/04/23 08:41:58;;;;;;;4.45;3.90;;;25.90;1.00;;;;;;5141524;27;20198;-86
2022/04/23 08:44:25;;;;;;;4.53;3.60;;;26.00;1.00;;;;;;5137836;27;20210;-89
2022/04/23 08:46:55;;;;;;;3.95;3.63;;;26.10;1.00;;;;;;5136436;27;20190;-89
2022/04/23 08:49:30;;;;;;;7.13;3.47;;;26.20;1.00;;;;;;5134539;27;20198;-87
2022/04/23 08:52:09;;;;;;;3.97;3.63;;;26.20;1.00;;;;;;5140867;27;20174;-86
2022/04/23 08:54:37;;;;;;;5.75;3.70;;;26.30;1.00;;;;;;5135713;28;20265;-88
2022/04/23 08:57:05;;;;;;;3.70;3.25;;;26.40;1.00;;;;;;5134425;27;20351;-85
2022/04/23 08:59:32;;;;;;;4.28;3.88;;;26.50;1.00;;;;;;5133988;27;20194;-87
2022/04/23 09:02:00;;;;;;;5.15;3.67;;;26.60;1.00;;;;;;5137250;27;20183;-87
2022/04/23 09:04:29;;;;;;;4.47;3.80;;;26.40;1.00;;;;;;5141382;27;20198;-88
2022/04/23 09:06:56;;;;;;;4.75;3.67;;;26.10;1.00;;;;;;5139826;27;20254;-85
2022/04/23 09:09:25;;;;;;;4.45;3.75;;;25.70;1.00;;;;;;5137559;27;20190;-86
2022/04/23 09:11:54;;;;;;;4.20;3.72;;;25.80;1.00;;;;;;5142571;27;20222;-85
2022/04/23 09:14:27;;;;;;;3.55;3.25;;;25.90;1.00;;;;;;5145730;27;20202;-85
2022/04/23 09:25:31;;;;;;;4.07;3.60;;;25.70;1.00;;;;;;5138718;27;20205;-88
2022/04/23 09:28:14;;;;;;;4.93;3.40;;;25.90;1.00;;;;;;5139345;27;20321;-86
2022/04/23 09:30:42;;;;;;;4.50;3.40;;;26.00;1.00;;;;;;5138098;27;20281;-90
2022/04/23 09:33:09;;;;;;;4.43;3.17;;;25.80;1.00;;;;;;5137382;27;20186;-88
2022/04/23 09:35:52;;;;;;;5.20;3.47;;;25.60;1.00;;;;;;5137352;27;20198;-88
2022/04/23 09:38:20;;;;;;;3.80;3.50;;;25.20;1.00;;;;;;5137191;27;20231;-88
2022/04/23 09:40:51;;;;;;;4.60;3.72;;;24.90;1.00;;;;;;5137138;27;20254;-85
2022/04/23 09:43:25;;;;;;;3.60;3.30;;;24.70;1.00;;;;;;5134815;27;20229;-85
2022/04/23 09:46:01;;;;;;;4.32;3.40;;;24.50;1.00;;;;;;5136797;27;20235;-86
2022/04/23 09:48:28;;;;;;;3.95;3.30;;;24.30;1.00;;;;;;5136363;27;20175;-84
2022/04/23 09:50:56;;;;;;;3.80;3.20;;;24.10;1.00;;;;;;5136087;27;20258;-88
2022/04/23 09:53:27;;;;;;;4.80;3.50;;;23.80;1.00;;;;;;5136053;27;20201;-85
2022/04/23 09:56:00;;;;;;;4.57;3.08;;;23.50;1.00;;;;;;5135969;27;20181;-86
2022/04/23 09:58:29;;;;;;;4.53;3.28;;;23.30;1.00;;;;;;5135406;27;20216;-83
2022/04/23 10:00:57;;;;;;;3.85;3.45;;;23.00;1.00;;;;;;5134860;27;20187;-84
2022/04/23 10:03:29;;;;;;;4.85;3.50;;;22.80;1.00;;;;;;5135363;27;20186;-84
2022/04/23 10:05:58;;;;;;;4.07;3.55;;;22.30;1.00;;;;;;5135608;27;20591;-85
2022/04/23 10:08:30;;;;;;;6.13;3.13;;;22.20;1.00;;;;;;5135759;27;20198;-84
2022/04/23 10:11:03;;;;;;;5.03;3.47;;;22.20;1.00;;;;;;5132543;27;20162;-84
2022/04/23 10:13:31;;;;;;;4.82;3.50;;;22.00;1.00;;;;;;5134027;27;20591;-87
2022/04/23 10:15:59;;;;;;;4.78;3.78;;;22.00;1.00;;;;;;5132562;27;20543;-84
2022/04/23 10:18:27;;;;;;;4.60;3.40;;;22.20;1.00;;;;;;5134887;27;20711;-84
2022/04/23 10:20:58;;;;;;;3.92;3.30;;;22.20;1.00;;;;;;5135087;27;20194;-85
2022/04/23 10:23:42;;;;;;;4.85;3.60;;;22.30;1.00;;;;;;5135151;27;20249;-84
2022/04/23 10:26:33;;;;;;;5.35;3.58;;;22.10;1.00;;;;;;5133819;27;20623;-84
2022/04/23 10:29:01;;;;;;;4.47;3.40;;;21.70;1.00;;;;;;5131790;27;20317;-84
2022/04/23 10:31:28;;;;;;;3.75;3.45;;;21.50;1.00;;;;;;5134698;27;20206;-82
2022/04/23 10:33:55;;;;;;;4.13;3.47;;;21.30;1.00;;;;;;5134463;27;20201;-85
2022/04/23 10:36:24;;;;;;;4.22;3.65;;;21.30;1.00;;;;;;5134803;27;20209;-85
2022/04/23 10:39:11;;;;;;;4.90;3.17;;;21.80;1.00;;;;;;5134550;27;20240;-84
2022/04/23 10:41:38;;;;;;;3.95;3.55;;;21.90;1.00;;;;;;5136406;27;20198;-86
2022/04/23 10:44:06;;;;;;;4.05;3.65;;;22.00;1.00;;;;;;5136186;27;20186;-83
2022/04/23 10:46:45;;;;;;;4.00;3.60;;;21.80;1.00;;;;;;5134721;27;20715;-84
2022/04/23 10:49:14;;;;;;;5.35;3.58;;;21.50;1.00;;;;;;5134576;27;20197;-83
2022/04/23 10:51:50;;;;;;;4.10;3.33;;;21.40;1.00;;;;;;5134945;27;20217;-81
2022/04/23 10:54:19;;;;;;;3.92;3.53;;;21.10;1.00;;;;;;5135359;27;20190;-84
2022/04/23 10:56:50;;;;;;;5.40;3.80;;;20.70;1.00;;;;;;5135127;27;20198;-82
2022/04/23 10:59:38;;;;;;;4.32;3.70;;;20.50;1.00;;;;;;5134817;27;20179;-84
2022/04/23 11:02:13;;;;;;;4.15;3.50;;;20.30;1.00;;;;;;5135175;27;20257;-83
2022/04/23 11:12:14;;;;;;;3.75;3.13;;;20.20;1.00;;;;;;5135083;27;20537;-83
2022/04/23 11:13:26;;;;;;;3.85;3.22;;;20.00;1.00;;;;;;5134634;27;20199;-84
2022/04/23 11:16:14;;;;;;;4.60;3.70;;;19.90;1.00;;;;;;5134727;27;20596;-83
2022/04/23 11:18:42;;;;;;;5.47;3.45;;;19.80;1.00;;;;;;5134902;27;20183;-82
2022/04/23 11:21:19;;;;;;;5.90;3.72;;;20.00;1.00;;;;;;5134287;27;20194;-82
2022/04/23 11:23:48;;;;;;;4.07;3.55;;;20.20;1.00;;;;;;5134617;27;20176;-83
2022/04/23 11:26:15;;;;;;;4.05;3.60;;;20.10;1.00;;;;;;5134291;27;20198;-83
2022/04/23 11:28:43;;;;;;;5.10;3.67;;;20.20;1.00;;;;;;5134072;27;20222;-84
2022/04/23 11:31:11;;;;;;;4.97;3.80;;;20.20;1.00;;;;;;5133831;27;20738;-83
2022/04/23 11:33:49;;;;;;;6.32;3.78;;;20.20;1.00;;;;;;5134150;27;20555;-84
2022/04/23 11:36:16;;;;;;;5.10;3.72;;;20.30;1.00;;;;;;5134584;27;20189;-83
2022/04/23 11:38:43;;;;;;;4.18;3.40;;;20.40;1.00;;;;;;5134125;27;20650;-84
2022/04/23 11:41:11;;;;;;;4.10;3.70;;;20.60;1.00;;;;;;5133829;27;20198;-83
2022/04/23 11:43:39;;;;;;;3.75;3.40;;;20.70;1.00;;;;;;5133856;27;20532;-84
2022/04/23 11:46:07;;;;;;;3.75;3.40;;;20.60;1.00;;;;;;5134205;27;20194;-83
2022/04/23 11:48:42;;;;;;;4.47;3.80;;;20.50;1.00;;;;;;5134029;27;20562;-83
2022/04/23 11:51:10;;;;;;;3.95;3.33;;;20.60;1.00;;;;;;5133974;27;20206;-84
2022/04/23 11:53:56;;;;;;;4.13;3.33;;;20.60;1.00;;;;;;5133721;27;20715;-81
2022/04/23 11:56:25;;;;;;;5.03;3.35;;;20.90;1.00;;;;;;5133989;27;20231;-82
2022/04/23 11:58:54;;;;;;;5.30;3.70;;;21.00;1.00;;;;;;5133977;27;20194;-82
2022/04/23 12:01:23;;;;;;;5.05;3.33;;;21.00;1.00;;;;;;5133697;27;20196;-84
2022/04/23 12:03:50;;;;;;;5.25;3.55;;;21.00;1.00;;;;;;5133586;27;20634;-83
2022/04/23 12:06:17;;;;;;;3.80;3.30;;;21.00;1.00;;;;;;5133943;27;20218;-84
2022/04/23 12:08:45;;;;;;;3.70;3.40;;;20.90;1.00;;;;;;5133410;27;20191;-82
2022/04/23 12:11:28;;;;;;;4.65;3.22;;;20.90;1.00;;;;;;5133307;27;20267;-81
2022/04/23 12:13:55;;;;;;;3.95;3.53;;;20.90;1.00;;;;;;5133760;27;20178;-83
2022/04/23 12:16:32;;;;;;;3.85;3.50;;;20.70;1.00;;;;;;5133673;27;20190;-84
2022/04/23 12:19:01;;;;;;;3.97;3.33;;;20.60;1.00;;;;;;5133661;27;20194;-84
2022/04/23 12:21:28;;;;;;;3.70;3.40;;;20.50;1.00;;;;;;5133613;27;20194;-82
2022/04/23 12:23:55;;;;;;;3.50;3.20;;;20.30;1.00;;;;;;5133338;27;20203;-82
2022/04/23 12:26:23;;;;;;;3.83;3.25;;;20.20;1.00;;;;;;5133667;27;20194;-84
2022/04/23 12:43:20;;;;;;;3.85;3.40;;;20.00;1.00;;;;;;5133245;27;20529;-84
2022/04/23 12:45:49;;;;;;;5.90;3.15;;;19.70;1.00;;;;;;5133414;27;20182;-82
2022/04/23 12:48:16;;;;;;;3.97;3.50;;;19.40;1.00;;;;;;5133153;27;20194;-82
2022/04/23 12:50:46;;;;;;;3.88;3.42;;;19.40;1.00;;;;;;5132517;27;20662;-82
2022/04/23 12:53:13;;;;;;;4.80;3.35;;;19.60;1.00;;;;;;5133191;28;20251;-83
2022/04/23 12:55:50;;;;;;;4.00;3.55;;;20.00;1.00;;;;;;5133069;27;20700;-83
2022/04/23 12:58:17;;;;;;;3.30;3.00;;;20.30;1.00;;;;;;5133609;27;20178;-81
2022/04/23 13:00:45;;;;;;;5.00;3.50;;;20.40;1.00;;;;;;5133076;27;20193;-82
2022/04/23 13:03:26;;;;;;;4.07;3.60;;;20.60;1.00;;;;;;5132768;28;20187;-81
2022/04/23 13:05:53;;;;;;;3.88;3.47;;;20.80;1.00;;;;;;5132880;28;20639;-84
2022/04/23 13:13:45;;;;;;;6.40;3.75;;;21.20;1.00;;;;;;5132620;27;20186;-82
2022/04/23 13:16:12;;;;;;;4.28;3.08;;;21.40;1.00;;;;;;5132986;28;20277;-84
2022/04/23 13:18:40;;;;;;;3.50;3.13;;;21.50;1.00;;;;;;5132936;27;20243;-84
2022/04/23 13:21:08;;;;;;;3.10;2.90;;;21.60;1.00;;;;;;5132370;27;20190;-82
2022/04/23 13:23:36;;;;;;;4.32;3.45;;;21.60;1.00;;;;;;5132342;27;20193;-81
2022/04/23 13:26:03;;;;;;;4.25;3.30;;;21.50;1.00;;;;;;5132633;27;20196;-82
2022/04/23 13:28:30;;;;;;;5.47;3.50;;;21.40;1.00;;;;;;5132329;27;20317;-81
2022/04/23 13:30:57;;;;;;;6.28;3.70;;;21.20;1.00;;;;;;5132925;27;20266;-84
2022/04/23 13:33:24;;;;;;;3.50;3.20;;;20.90;1.00;;;;;;5132783;27;20187;-86
2022/04/23 13:35:53;;;;;;;5.32;3.65;;;20.60;1.00;;;;;;5133048;28;20186;-81
2022/04/23 13:38:20;;;;;;;4.10;3.30;;;20.40;1.00;;;;;;5132670;27;20247;-84
2022/04/23 13:40:49;;;;;;;4.10;3.40;;;20.30;1.00;;;;;;5132535;27;20723;-81
2022/04/23 13:43:17;;;;;;;4.78;3.50;;;20.10;1.00;;;;;;5132384;27;20288;-83
2022/04/23 13:45:44;;;;;;;8.23;3.38;;;20.00;1.00;;;;;;5132757;28;20191;-81
2022/04/23 13:48:12;;;;;;;5.43;3.55;;;19.90;1.00;;;;;;5132567;27;20587;-82
2022/04/23 13:50:39;;;;;;;3.80;3.40;;;19.70;1.00;;;;;;5135758;27;20186;-83
2022/04/23 13:53:08;;;;;;;5.55;4.18;;;19.70;1.00;;;;;;5136024;27;20217;-84
2022/04/23 13:55:35;;;;;;;5.35;3.17;;;19.80;1.00;;;;;;5136226;27;20201;-81